logo
App data

Klang

Klang is an innovative take on traditional rhythm games that pushes the genre beyond pressing buttons to tempo into a world of fast-paced exploration, platforming and combat.
Store | Hub | SteamDB | Site
Developer: Tinimations Publisher: Snow Cannon Games
Genre: Action, Indie
Languages: English, Norwegian
Tags: Action (24), Indie (22), Rhythm (17), Great Soundtrack (15), Platformer (14), Difficult (13), Music (13), Colorful (11), Fast-Paced (11), Singleplayer (11), Controller (11)
Category: Single-player, Steam Achievements, Full controller support, Steam Trading Cards
Release date: Sep 22, 2016
Price: $3.74 75%
Score rank: 48% Userscore: 78% Old userscore: 81% Metascore: 71%
Owners: 0 .. 20,000
Followers: 1,411
Peak concurrent players yesterday: 5
YouTube stats: 1 views and 0 comments for videos uploaded last week, 1 new videos uploaded yesterday.
Playtime total: 02:21 (average) 03:05 (median)

Steam Spy is still in beta, so expect major bugs.

Owners data:

Access restricted.

This feature is only available to users with special access rights. Sorry.

If you want to proceed, you need to register or log in first and then back Steam Spy on Patreon. Look for Indie or Pro pledge.

Don't forget to use the same email as on Steam Spy!

Audience in 2 weeks:

Access restricted.

This feature is only available to users with special access rights. Sorry.

If you want to proceed, you need to register or log in first and then back Steam Spy on Patreon. Look for Indie or Pro pledge.

Don't forget to use the same email as on Steam Spy!

Peak daily concurrent players:

CCU data courtesy of SteamDB. Used with permission.

Hourly concurrent players:

Daily Twitch stats:

Hourly Twitch stats:

YouTube:

The views data is based on top 50 videos uploaded last week. Actual number of views might be more than the number shown.

The displayed number of videos uploaded yesterday is limited to 50, so if there were more videos uploaded, the number will still show 50.

If the game has commonly used word as its name (like "FEAR" or "Volume") its number of Youtube views might be wrong.

Games similar to this one:

# Game Release date
Price
Score rank
(Userscore / Metascore)
Owners
Players
Playtime (Median)
1 Aaero Apr 11, 2017 $14.9993% (95%)0 .. 20,00012.5%00:38 (00:25)
2 Star Trek: Judgment Rites May 8, 2015 $9.99N/A (N/A)0 .. 20,0000%00:00 (00:00)
3 Adventure in the Tower of Flight Dec 23, 2015 $4.99N/A (N/A)0 .. 20,0000%00:00 (00:00)
4 Counter Spell Oct 5, 2015 $9.9984% (92%)0 .. 20,0000%00:00 (00:00)
5 Knightmare Tower Jun 16, 2014 $3.9984% (92%)0 .. 20,0000%00:00 (00:00)
6 Super Kaiju Dec 6, 2016 $19.99N/A (N/A)0 .. 20,0000%00:00 (00:00)
7 Star Trek : 25th Anniversary May 7, 2015 $9.9980% (91%)0 .. 20,0000%00:00 (00:00)
8 Hyphen Feb 12, 2015 N/AN/A (N/A)0 .. 20,0000%00:00 (00:00)
9 Smashing The Battle VR Jun 15, 2017 $10.99N/A (N/A)0 .. 20,0000%00:00 (00:00)
10 Spark the Electric Jester Apr 10, 2017 $7.9977% (90%)0 .. 20,0000%00:00 (00:00)
11 Hero of Many Sep 15, 2014 $6.9971% (88%)20,000 .. 50,0000%00:00 (00:00)
12 Neighborhorde Jun 5, 2017 $4.99N/A (N/A)0 .. 20,0003.57%00:48 (00:16)
13 XIIZEAL Jun 5, 2015 $11.99N/A (N/A)0 .. 20,0000%00:00 (00:00)
14 Knight Squad Nov 16, 2015 $14.9968% (87%)50,000 .. 100,0000%00:00 (00:00)
15 N2O: Nitrous Oxide Jun 29, 2015 $4.99N/A (N/A)0 .. 20,0000%00:00 (00:00)
16 Super Rad Raygun Nov 15, 2016 $4.99N/A (N/A/64%)0 .. 20,0000%00:00 (00:00)
17 Asura: Vengeance Expansion Apr 13, 2017 $9.9966% (86%)20,000 .. 50,0000%00:00 (00:00)
18 Vintage Year Jan 2, 2015 $2.99N/A (N/A)20,000 .. 50,0000%00:00 (00:00)
19 Disney's Chicken Little Feb 24, 2015 $9.9963% (85%)0 .. 20,0000%00:00 (00:00)
20 Azure Striker Gunvolt Aug 28, 2015 $14.9963% (85%)20,000 .. 50,0000%00:00 (00:00)
21 Nongünz May 19, 2017 $6.9960% (84%)100,000 .. 200,0000.33%00:01 (00:00)
22 Isbarah Feb 25, 2015 $13.99N/A (N/A)20,000 .. 50,0000%00:00 (00:00)
23 Ittle Dew 2 Nov 15, 2016 $19.9958% (83%)0 .. 20,0000%00:00 (00:00)
24 Fighties Jul 13, 2015 $4.9955% (82%)0 .. 20,0000%00:00 (00:00)
25 Rosenkreuzstilette Feb 2, 2017 $9.9953% (81%)0 .. 20,0007.14%00:19 (00:06)
26 LocoCycle Feb 14, 2014 $9.9951% (80%)0 .. 20,0000%00:00 (00:00)
27 Airport Madness: World Edition May 28, 2015 $9.9949% (79%)20,000 .. 50,0000%00:00 (00:00)
28 Dyna Bomb May 13, 2016 $4.99N/A (N/A)0 .. 20,0000%00:00 (00:00)
29 Left Alone Apr 28, 2016 $6.9947% (78%)0 .. 20,0000%00:00 (00:00)
30 IrreVRsible May 24, 2016 $1.99N/A (N/A)0 .. 20,0000%00:00 (00:00)
31 Not Dying Today Jan 13, 2017 $9.9947% (78%)0 .. 20,0000%00:00 (00:00)
32 Blue Effect VR Sep 29, 2016 $14.9947% (78%)0 .. 20,0000%00:00 (00:00)
33 Age of Barbarian Extended Cut May 20, 2016 $12.9945% (77%)0 .. 20,0000%00:00 (00:00)
34 Starchaser: Priestess of the Night Sky Jul 24, 2015 $9.99N/A (N/A)0 .. 20,0000%00:00 (00:00)
35 Zero Reflex : Black Eye Edition Nov 4, 2015 $3.9941% (75%)20,000 .. 50,0000%00:00 (00:00)
36 After The End: The Harvest Jun 2, 2017 $4.9941% (75%)20,000 .. 50,0000%00:00 (00:00)
37 Aeon May 22, 2017 $19.9937% (73%)0 .. 20,0000%00:00 (00:00)
38 BoxesWithGuns Apr 14, 2015 $1.99N/A (N/A)20,000 .. 50,0000%00:00 (00:00)
39 ABRACA - Imagic Games Mar 31, 2016 $14.99N/A (N/A)0 .. 20,0003.7%00:01 (00:00)
40 Planet of Mubu Apr 1, 2017 $0.5934% (71%)0 .. 20,0000.52%01:05 (00:21)
41 SAMURAI WARRIORS: Spirit of Sanada May 23, 2017 $49.9934% (71%)0 .. 20,00020%07:44 (03:52)
42 The Girl and the Robot Aug 17, 2016 $9.9932% (70%)0 .. 20,0000%00:00 (00:00)
43 Spud's Quest Jul 31, 2014 $7.99N/A (N/A)0 .. 20,0000%00:00 (00:00)
44 Dystopy Feb 28, 2017 FreeN/A (N/A)0 .. 20,0000%00:00 (00:00)
45 Phantaruk Aug 16, 2016 $4.9926% (66%/53%)20,000 .. 50,0000.96%01:05 (00:21)
46 Assault Suit Leynos Aug 30, 2016 $19.9926% (66%)0 .. 20,0000%00:00 (00:00)
47 Demon Peak Jul 7, 2017 $4.9925% (65%)0 .. 20,0000%00:00 (00:00)
48 BIOS Dec 13, 2016 $14.9925% (65%)0 .. 20,0000%00:00 (00:00)
49 Tank Brawl Apr 20, 2016 $4.99N/A (N/A)0 .. 20,0000%00:00 (00:00)
50 Disney Alice in Wonderland Oct 6, 2014 $19.9925% (65%/63%)0 .. 20,0000%00:00 (00:00)
51 Demon's Crystals Apr 21, 2016 $4.99N/A (N/A)0 .. 20,0000%00:00 (00:00)
52 Toxic Bunny HD Jul 18, 2014 $5.99N/A (N/A)0 .. 20,0000%00:00 (00:00)
53 Alpha Zylon Jul 15, 2014 $4.9922% (63%)20,000 .. 50,0000%00:00 (00:00)
54 Pixel-Warfare: Pro Sep 20, 2016 $0.9920% (61%)50,000 .. 100,0000%00:00 (00:00)
55 Bombshell Jan 29, 2016 $34.9920% (61%/43%)20,000 .. 50,0001.64%04:11 (01:23)
56 Hybrid Wars Sep 29, 2016 $6.9919% (60%/54%)0 .. 20,00012.5%00:08 (00:02)
57 Fowl Space Mar 21, 2012 $4.9918% (59%)20,000 .. 50,0000%00:00 (00:00)
58 Disney Tangled Oct 6, 2014 $19.99N/A (N/A)0 .. 20,0000%00:00 (00:00)
59 #KILLALLZOMBIES Aug 10, 2016 $4.9915% (56%)20,000 .. 50,0000%00:00 (00:00)
60 The Curse of Nordic Cove Apr 23, 2015 $0.99N/A (N/A)0 .. 20,0000%00:00 (00:00)
61 Shadowcrypt Sep 15, 2014 $4.9915% (56%)0 .. 20,0000%00:00 (00:00)
62 Disney•Pixar Cars 2: The Video Game Oct 6, 2014 $19.9911% (50%)0 .. 20,0000%00:00 (00:00)
63 Scooby Doo! & Looney Tunes Cartoon Universe: Adventure Jul 16, 2014 $19.99N/A (N/A)0 .. 20,0000%00:00 (00:00)
64 Blasting Agent: Ultimate Edition Aug 17, 2016 $2.99N/A (N/A)0 .. 20,0000%00:00 (00:00)
65 Plancon: Space Conflict Aug 8, 2016 $6.998% (44%)20,000 .. 50,0000%00:00 (00:00)
66 Lost Sea Jul 5, 2016 $14.998% (44%)0 .. 20,0000%00:00 (00:00)
67 Infinium Strike Jul 14, 2016 $9.997% (43%)0 .. 20,0000%00:00 (00:00)
68 Damage Inc. Pacific Squadron WWII Aug 28, 2012 $39.99N/A (N/A)0 .. 20,0000%00:00 (00:00)
69 Red Goddess: Inner World Aug 31, 2015 $9.996% (39%/53%)0 .. 20,0000%00:00 (00:00)
70 Kick-Ass 2 Aug 15, 2014 $19.994% (33%)20,000 .. 50,0001.85%02:54 (00:58)
71 Disney Fairies: Tinker Bell's Adventure Oct 6, 2014 $19.99N/A (N/A)0 .. 20,0000%00:00 (00:00)
72 Masterspace Jun 15, 2015 $7.993% (28%)0 .. 20,0000%00:00 (00:00)
73 Monster Challenge Circus May 15, 2014 $4.99N/A (N/A)0 .. 20,0000%00:00 (00:00)
74 Deer Hunt Legends Jan 16, 2015 $4.99N/A (N/A)0 .. 20,0000%00:00 (00:00)

Tags over time:

Access restricted.

This feature is only available to users with special access rights. Sorry.

If you want to proceed, you need to register or log in first and then back Steam Spy on Patreon. Look for Indie or Pro pledge.

Don't forget to use the same email as on Steam Spy!

Owners of this game also own:

Access restricted.

This feature is only available to users with special access rights. Sorry.

If you want to proceed, you need to register or log in first and then back Steam Spy on Patreon. Look for Indie or Pro pledge.

Don't forget to use the same email as on Steam Spy!

Playtime distribution:

Access restricted.

This feature is only available to users with special access rights. Sorry.

If you want to proceed, you need to register or log in first and then back Steam Spy on Patreon. Look for Indie or Pro pledge.

Don't forget to use the same email as on Steam Spy!

Playtime (2 weeks):

Access restricted.

This feature is only available to users with special access rights. Sorry.

If you want to proceed, you need to register or log in first and then back Steam Spy on Patreon. Look for Indie or Pro pledge.

Don't forget to use the same email as on Steam Spy!

User reviews:

Login required.

Please register or log in to see this information.